To NAV CANADA Home Page Login to a new session Search on AWWS site Feedback and Comments Disclaimer Vers la page française équivalente Tips FAQ What's new on the site To the Forecasts and Observations / NOTAM section To "File a Flight Plan" website Publications and other links Update of the User's profile FIC Telephone Numbers My Weather Data Folder Route Weather Data Regional Weather Data Local Weather Data To the Forecasts and Observations / NOTAM section
Request Generated 06/29/2015 at 23:07:24 UTC . Weather information available at that time is displayed.

METAR/TAF

MONTREAL/MONTREAL INTL (MIRABEL)/QC    

METAR CYMX 292200Z 24004KT 200V300 45SM FEW025 BKN087 18/14 A2984 RMK
CU2AC5 SLP105 DENSITY ALT 700FT=
METAR CYMX 292100Z 24005KT 200V270 45SM SCT025 BKN085 18/14 A2984 RMK
CU3AC4 OCNL -SHRA SLP106 DENSITY ALT 700FT=
METAR CYMX 292000Z 21005KT 45SM -SHRA SCT025 BKN070 17/15 A2984 RMK
CU4AC3 SLP107 DENSITY ALT 600FT=

TAF CYMX 291738Z 2918/3018 27006KT P6SM BKN040 TEMPO 2918/2922 P6SM
-SHRA BKN020
FM300100 23007KT P6SM FEW040 PROB30 3008/3012 2SM BR
RMK NXT FCST BY 300000Z=
Your time UTC time
Weather data provided by Environment Canada and NAV CANADA